createdAt,value
2022-10-10T00:01:40.886Z,87.69
2022-10-10T00:04:08.816Z,88.32
2022-10-10T00:06:36.893Z,88.19
2022-10-10T00:09:05.828Z,88.22
2022-10-10T00:11:36.318Z,88.41
2022-10-10T00:14:04.533Z,88.47
2022-10-10T00:16:32.513Z,88.67
2022-10-10T00:19:00.417Z,88.73
2022-10-10T00:21:28.345Z,88.89
2022-10-10T00:23:56.426Z,89.11
2022-10-10T00:26:24.308Z,89.18
2022-10-10T00:28:53.669Z,89.20
2022-10-10T00:31:21.694Z,89.13
2022-10-10T00:33:49.636Z,89.11
2022-10-10T00:36:20.513Z,89.42
2022-10-10T00:38:49.213Z,89.69
2022-10-10T00:41:17.227Z,89.90
2022-10-10T00:43:45.062Z,89.71
2022-10-10T00:46:14.809Z,89.72
2022-10-10T00:48:46.329Z,89.93
2022-10-10T00:51:17.860Z,89.82
2022-10-10T00:53:49.116Z,89.97
2022-10-10T00:56:19.665Z,89.94
2022-10-10T00:58:51.711Z,90.18
2022-10-10T01:01:21.401Z,90.63
2022-10-10T01:03:49.408Z,90.65
2022-10-10T01:06:17.370Z,90.61
2022-10-10T01:08:45.589Z,90.90
2022-10-10T01:11:29.968Z,91.30
2022-10-10T01:14:09.302Z,90.86
2022-10-10T01:16:48.093Z,91.21
2022-10-10T01:19:53.844Z,91.34
2022-10-10T01:22:31.148Z,91.24
2022-10-10T01:25:08.999Z,91.37
2022-10-10T01:27:42.921Z,91.35
2022-10-10T01:30:15.558Z,91.52
2022-10-10T01:32:53.011Z,91.47
2022-10-10T01:35:32.781Z,91.66
2022-10-10T01:38:11.042Z,91.68
2022-10-10T01:40:48.746Z,91.25
2022-10-10T01:43:18.080Z,91.58
2022-10-10T01:45:47.883Z,91.85
2022-10-10T01:48:19.053Z,92.06
2022-10-10T01:51:04.269Z,92.54
2022-10-10T01:53:41.844Z,92.24
2022-10-10T01:56:14.978Z,92.01
2022-10-10T01:59:10.917Z,92.52
2022-10-10T02:01:49.188Z,92.08
2022-10-10T02:04:23.967Z,92.33
2022-10-10T02:06:56.615Z,92.41
2022-10-10T02:09:30.357Z,92.19
2022-10-10T02:12:01.086Z,92.40
2022-10-10T02:14:33.322Z,92.60
2022-10-10T02:17:06.219Z,92.61
2022-10-10T02:19:34.472Z,92.78
2022-10-10T02:22:03.447Z,92.60
2022-10-10T02:24:31.536Z,92.58
2022-10-10T02:27:04.740Z,92.83
2022-10-10T02:29:36.950Z,92.57
2022-10-10T02:32:10.938Z,92.32
2022-10-10T02:34:42.385Z,92.55
2022-10-10T02:37:13.897Z,92.67
2022-10-10T02:39:45.450Z,92.35
2022-10-10T02:42:16.285Z,92.22
2022-10-10T02:44:45.001Z,92.45
2022-10-10T02:47:14.784Z,92.41
2022-10-10T02:49:42.861Z,92.65
2022-10-10T02:52:11.944Z,92.34
2022-10-10T02:54:39.902Z,92.40
2022-10-10T02:57:07.970Z,92.33
2022-10-10T02:59:36.237Z,92.79
2022-10-10T03:02:04.249Z,92.81
2022-10-10T03:04:34.059Z,93.21
2022-10-10T03:07:01.976Z,92.85
2022-10-10T03:09:30.148Z,93.57
2022-10-10T03:11:58.100Z,93.68
2022-10-10T03:14:25.981Z,94.00
2022-10-10T03:16:54.240Z,93.75
2022-10-10T03:19:22.197Z,94.06
2022-10-10T03:21:51.604Z,94.40
2022-10-10T03:24:19.596Z,94.52
2022-10-10T03:26:47.819Z,94.61
2022-10-10T03:29:15.686Z,94.64
2022-10-10T03:31:43.718Z,95.05
2022-10-10T03:34:12.029Z,95.13
2022-10-10T03:36:39.925Z,95.59
2022-10-10T03:39:09.431Z,96.03
2022-10-10T03:41:37.485Z,96.05
2022-10-10T03:44:05.443Z,96.32
2022-10-10T03:46:33.270Z,96.11
2022-10-10T03:49:01.250Z,96.21
2022-10-10T03:51:29.189Z,96.70
2022-10-10T03:53:57.028Z,96.13
2022-10-10T03:56:26.711Z,96.69
2022-10-10T03:58:54.655Z,96.89
2022-10-10T04:01:22.528Z,96.72
2022-10-10T04:03:52.275Z,97.49
2022-10-10T04:06:20.407Z,97.15
2022-10-10T04:08:48.533Z,97.40
2022-10-10T04:11:16.557Z,96.91
2022-10-10T04:13:45.811Z,96.95
2022-10-10T04:16:13.744Z,97.04
2022-10-10T04:18:41.855Z,96.90
2022-10-10T04:21:13.509Z,97.37
2022-10-10T04:23:41.670Z,96.98
2022-10-10T04:26:10.205Z,97.21
2022-10-10T04:28:38.148Z,96.78
2022-10-10T04:31:07.770Z,97.05
2022-10-10T04:33:35.938Z,97.29
2022-10-10T04:36:03.867Z,96.83
2022-10-10T04:38:31.706Z,97.37
2022-10-10T04:40:59.872Z,97.00
2022-10-10T04:43:27.694Z,97.04
2022-10-10T04:45:57.600Z,97.65
2022-10-10T04:48:27.217Z,97.44
2022-10-10T04:50:57.089Z,97.28
2022-10-10T04:53:25.530Z,97.02
2022-10-10T04:55:53.853Z,97.33
2022-10-10T04:58:21.819Z,97.35
2022-10-10T05:00:53.063Z,97.08
2022-10-10T05:03:21.440Z,97.36
2022-10-10T05:05:50.848Z,97.37
2022-10-10T05:08:19.432Z,97.67
2022-10-10T05:10:48.398Z,97.20
2022-10-10T05:13:17.458Z,97.20
2022-10-10T05:15:45.471Z,97.04
2022-10-10T05:18:13.496Z,97.37
2022-10-10T05:20:43.922Z,97.26
2022-10-10T05:23:13.105Z,97.13
2022-10-10T05:25:41.630Z,97.38
2022-10-10T05:28:09.539Z,97.29
2022-10-10T05:30:37.411Z,97.01
2022-10-10T05:33:05.658Z,97.46
2022-10-10T05:35:33.622Z,97.62
2022-10-10T05:38:01.617Z,97.26
2022-10-10T05:40:31.022Z,97.40
2022-10-10T05:42:58.904Z,97.28
2022-10-10T05:45:26.822Z,97.44
2022-10-10T05:47:54.971Z,97.33
2022-10-10T05:50:31.654Z,97.64
2022-10-10T05:52:59.806Z,97.54
2022-10-10T05:55:27.807Z,97.40
2022-10-10T05:57:57.103Z,97.21
2022-10-10T06:00:25.263Z,97.54
2022-10-10T06:02:53.279Z,97.50
2022-10-10T06:05:21.493Z,97.37
2022-10-10T06:08:05.949Z,97.25
2022-10-10T06:10:37.878Z,97.26
2022-10-10T06:13:07.380Z,96.73
2022-10-10T06:15:35.412Z,96.08
2022-10-10T06:18:03.807Z,95.78
2022-10-10T06:20:31.872Z,95.45
2022-10-10T06:22:59.794Z,94.79
2022-10-10T06:25:40.078Z,94.58
2022-10-10T06:28:10.764Z,94.58
2022-10-10T06:30:41.806Z,94.29
2022-10-10T06:33:10.012Z,94.04
2022-10-10T06:35:41.849Z,93.81
2022-10-10T06:38:09.814Z,93.55
2022-10-10T06:40:37.930Z,93.66
2022-10-10T06:43:08.953Z,94.07
2022-10-10T06:45:38.997Z,95.11
2022-10-10T06:48:06.917Z,95.58
2022-10-10T06:50:35.235Z,95.67
2022-10-10T06:53:03.430Z,95.02
2022-10-10T06:55:31.579Z,94.16
2022-10-10T06:57:59.851Z,93.45
2022-10-10T07:00:27.918Z,91.10
2022-10-10T07:02:57.100Z,90.47
2022-10-10T07:05:25.275Z,90.43
2022-10-10T07:07:54.300Z,89.28
2022-10-10T07:10:22.162Z,87.75
2022-10-10T07:12:50.081Z,87.45
2022-10-10T07:15:18.225Z,86.27
2022-10-10T07:17:50.485Z,86.46
2022-10-10T07:20:22.874Z,84.55
2022-10-10T07:22:51.122Z,83.65
2022-10-10T07:25:19.234Z,83.38
2022-10-10T07:27:47.359Z,82.36
2022-10-10T07:30:15.414Z,81.37
2022-10-10T07:32:43.558Z,79.96
2022-10-10T07:35:12.570Z,80.00
2022-10-10T07:37:41.987Z,78.69
2022-10-10T07:40:10.733Z,78.51
2022-10-10T07:42:38.708Z,77.43
2022-10-10T07:45:07.833Z,76.54
2022-10-10T07:47:35.666Z,76.22
2022-10-10T07:50:03.716Z,74.80
2022-10-10T07:52:31.622Z,73.76
2022-10-10T07:55:00.855Z,72.02
2022-10-10T07:57:29.048Z,71.73
2022-10-10T07:59:57.012Z,70.00
2022-10-10T08:02:24.905Z,70.14
2022-10-10T08:04:52.898Z,70.22
2022-10-10T08:07:21.132Z,69.73
2022-10-10T08:09:49.048Z,69.29
2022-10-10T08:12:18.470Z,68.53
2022-10-10T08:14:46.534Z,69.32
2022-10-10T08:17:14.532Z,68.45
2022-10-10T08:19:42.498Z,66.96
2022-10-10T08:22:10.440Z,66.42
2022-10-10T08:24:38.309Z,66.64
2022-10-10T08:27:06.353Z,65.56
2022-10-10T08:29:35.884Z,66.15
2022-10-10T08:32:03.813Z,65.52
2022-10-10T08:34:32.314Z,62.85
2022-10-10T08:37:00.366Z,62.95
2022-10-10T08:39:28.238Z,64.33
2022-10-10T08:41:58.426Z,63.44
2022-10-10T08:44:31.572Z,63.27
2022-10-10T08:47:04.873Z,63.07
2022-10-10T08:49:36.029Z,63.06
2022-10-10T08:52:09.661Z,62.44
2022-10-10T08:54:40.223Z,62.53
2022-10-10T08:57:26.063Z,62.56
2022-10-10T08:59:58.974Z,61.88
2022-10-10T09:02:50.163Z,60.62
2022-10-10T09:05:25.463Z,61.29
2022-10-10T09:08:08.676Z,59.68
2022-10-10T09:10:47.009Z,59.94
2022-10-10T09:13:28.817Z,59.29
2022-10-10T09:16:00.380Z,59.00
2022-10-10T09:18:44.220Z,58.32
2022-10-10T09:21:17.314Z,58.84
2022-10-10T09:23:52.278Z,58.12
2022-10-10T09:26:23.442Z,58.24
2022-10-10T09:28:55.486Z,56.94
2022-10-10T09:31:29.038Z,57.91
2022-10-10T09:34:04.736Z,58.46
2022-10-10T09:36:37.199Z,58.76
2022-10-10T09:39:14.223Z,58.28
2022-10-10T09:41:46.940Z,57.66
2022-10-10T09:44:16.518Z,57.50
2022-10-10T09:46:44.450Z,57.95
2022-10-10T09:49:16.305Z,57.69
2022-10-10T09:51:44.426Z,57.67
2022-10-10T09:54:12.754Z,56.95
2022-10-10T09:56:44.701Z,56.39
2022-10-10T09:59:37.661Z,55.85
2022-10-10T10:02:16.692Z,55.57
2022-10-10T10:04:46.610Z,54.59
2022-10-10T10:07:28.406Z,52.83
2022-10-10T10:09:58.606Z,54.15
2022-10-10T10:12:29.673Z,54.41
2022-10-10T10:15:03.488Z,55.05
2022-10-10T10:17:31.655Z,56.18
2022-10-10T10:20:01.013Z,56.22
2022-10-10T10:22:35.694Z,56.47
2022-10-10T10:25:36.251Z,57.03
2022-10-10T10:28:20.686Z,56.82
2022-10-10T10:30:49.594Z,56.96
2022-10-10T10:33:29.255Z,55.77
2022-10-10T10:36:06.475Z,56.33
2022-10-10T10:38:43.679Z,55.92
2022-10-10T10:41:19.066Z,55.51
2022-10-10T10:43:59.640Z,56.49
2022-10-10T10:46:36.866Z,57.68
2022-10-10T10:49:15.585Z,57.07
2022-10-10T10:52:30.733Z,56.69
2022-10-10T10:55:11.622Z,56.95
2022-10-10T10:58:10.318Z,56.66
2022-10-10T11:01:20.904Z,56.89
2022-10-10T11:05:20.346Z,57.40
2022-10-10T11:07:17.304Z,58.71
2022-10-10T11:09:51.338Z,58.58
2022-10-10T11:12:32.353Z,58.48
2022-10-10T11:15:05.159Z,58.74
2022-10-10T11:17:39.933Z,58.30
2022-10-10T11:20:17.617Z,57.97
2022-10-10T11:22:51.584Z,58.69
2022-10-10T11:25:27.098Z,58.45
2022-10-10T11:28:01.229Z,58.11
2022-10-10T11:30:34.826Z,57.71
2022-10-10T11:33:12.530Z,57.85
2022-10-10T11:35:45.729Z,56.75
2022-10-10T11:38:22.180Z,56.23
2022-10-10T11:40:56.436Z,56.59
2022-10-10T11:43:35.289Z,56.29
2022-10-10T11:46:22.672Z,55.76
2022-10-10T11:48:59.892Z,56.02
2022-10-10T11:51:39.232Z,56.07
2022-10-10T11:54:14.490Z,55.95
2022-10-10T11:56:46.782Z,56.70
2022-10-10T11:59:22.045Z,57.35
2022-10-10T12:01:53.165Z,57.37
2022-10-10T12:04:21.360Z,57.51
2022-10-10T12:06:56.986Z,57.00
2022-10-10T12:09:30.008Z,57.23
2022-10-10T12:12:04.371Z,57.38
2022-10-10T12:14:33.642Z,56.91
2022-10-10T12:17:01.730Z,57.16
2022-10-10T12:19:30.762Z,56.99
2022-10-10T12:22:01.649Z,57.30
2022-10-10T12:24:30.960Z,56.74
2022-10-10T12:27:42.481Z,57.41
2022-10-10T12:30:24.824Z,57.41
2022-10-10T12:32:54.875Z,57.03
2022-10-10T12:35:38.030Z,56.86
2022-10-10T12:38:21.200Z,57.07
2022-10-10T12:41:15.471Z,57.03
2022-10-10T12:43:51.293Z,57.01
2022-10-10T12:46:22.938Z,56.41
2022-10-10T12:49:17.052Z,55.84
2022-10-10T12:51:47.323Z,55.00
2022-10-10T12:54:25.211Z,54.48
2022-10-10T12:57:02.762Z,54.29
2022-10-10T12:59:36.144Z,53.97
2022-10-10T13:02:08.207Z,53.25
2022-10-10T13:04:36.279Z,53.32
2022-10-10T13:07:05.662Z,53.47
2022-10-10T13:09:36.126Z,54.25
2022-10-10T13:12:07.103Z,54.09
2022-10-10T13:14:41.916Z,54.43
2022-10-10T13:17:28.322Z,54.24
2022-10-10T13:19:57.848Z,54.67
2022-10-10T13:22:27.007Z,55.00
2022-10-10T13:24:55.537Z,55.75
2022-10-10T13:27:26.276Z,55.68
2022-10-10T13:29:56.951Z,55.63
2022-10-10T13:32:27.977Z,56.93
2022-10-10T13:34:58.787Z,56.75
2022-10-10T13:37:27.492Z,56.96
2022-10-10T13:39:55.914Z,56.43
2022-10-10T13:42:34.041Z,56.89
2022-10-10T13:45:30.172Z,55.52
2022-10-10T13:48:13.296Z,55.69
2022-10-10T13:51:02.738Z,55.26
2022-10-10T13:53:37.129Z,54.06
2022-10-10T13:56:13.536Z,53.47
2022-10-10T13:58:44.685Z,53.77
2022-10-10T14:01:40.509Z,53.28
2022-10-10T14:04:22.974Z,53.54
2022-10-10T14:07:02.963Z,54.21
2022-10-10T14:09:34.580Z,54.60
2022-10-10T14:12:04.626Z,54.88
2022-10-10T14:14:41.685Z,55.64
2022-10-10T14:17:11.852Z,56.57
2022-10-10T14:19:41.094Z,57.28
2022-10-10T14:22:09.011Z,57.90
2022-10-10T14:24:37.097Z,58.38
2022-10-10T14:27:24.687Z,59.68
2022-10-10T14:29:53.988Z,60.09
2022-10-10T14:32:22.589Z,60.94
2022-10-10T14:34:52.074Z,61.67
2022-10-10T14:37:24.146Z,61.89
2022-10-10T14:39:52.606Z,62.05
2022-10-10T14:42:22.354Z,62.41
2022-10-10T14:44:50.269Z,62.49
2022-10-10T14:47:20.526Z,63.41
2022-10-10T14:49:48.855Z,63.32
2022-10-10T14:52:18.119Z,63.95
2022-10-10T14:54:46.048Z,64.61
2022-10-10T14:57:14.913Z,64.88
2022-10-10T14:59:47.407Z,65.48
2022-10-10T15:02:18.593Z,65.66
2022-10-10T15:04:46.405Z,66.18
2022-10-10T15:07:15.433Z,66.67
2022-10-10T15:10:09.633Z,67.00
2022-10-10T15:12:34.660Z,67.12
2022-10-10T15:15:02.670Z,67.39
2022-10-10T15:17:33.733Z,68.48
2022-10-10T15:20:01.857Z,68.75
2022-10-10T15:22:30.144Z,69.00
2022-10-10T15:25:00.080Z,69.50
2022-10-10T15:27:29.270Z,69.86
2022-10-10T15:29:57.393Z,69.85
2022-10-10T15:32:25.381Z,70.22
2022-10-10T15:34:53.879Z,70.69
2022-10-10T15:37:24.893Z,71.09
2022-10-10T15:39:52.717Z,71.47
2022-10-10T15:42:23.372Z,72.17
2022-10-10T15:44:52.376Z,71.98
2022-10-10T15:47:21.201Z,72.74
2022-10-10T15:49:49.205Z,72.88
2022-10-10T15:52:17.977Z,73.26
2022-10-10T15:54:48.583Z,73.61
2022-10-10T15:57:18.636Z,73.67
2022-10-10T15:59:48.701Z,74.02
2022-10-10T16:02:17.604Z,74.27
2022-10-10T16:04:46.684Z,74.42
2022-10-10T16:07:34.634Z,74.48
2022-10-10T16:10:03.417Z,74.97
2022-10-10T16:12:31.756Z,75.61
2022-10-10T16:15:04.804Z,75.90
2022-10-10T16:17:35.156Z,76.10
2022-10-10T16:20:03.167Z,76.76
2022-10-10T16:22:31.037Z,76.57
2022-10-10T16:27:47.263Z,77.16
2022-10-10T16:30:16.716Z,77.34
2022-10-10T16:32:44.638Z,77.47
2022-10-10T16:35:12.716Z,77.60
2022-10-10T16:37:40.772Z,78.13
2022-10-10T16:40:09.761Z,78.33
2022-10-10T16:42:37.878Z,78.58
2022-10-10T16:45:06.865Z,78.97
2022-10-10T16:47:36.062Z,78.71
2022-10-10T16:50:06.109Z,79.26
2022-10-10T16:52:38.008Z,79.68
2022-10-10T16:55:07.854Z,79.59
2022-10-10T16:57:36.497Z,79.66
2022-10-10T17:00:05.618Z,79.86
2022-10-10T17:02:33.468Z,79.51
2022-10-10T17:05:02.862Z,79.84
2022-10-10T17:07:30.810Z,79.60
2022-10-10T17:09:58.615Z,80.02
2022-10-10T17:12:26.600Z,79.71
2022-10-10T17:14:54.592Z,79.86
2022-10-10T17:17:22.657Z,79.90
2022-10-10T17:19:50.665Z,80.13
2022-10-10T17:22:20.139Z,79.96
2022-10-10T17:24:48.193Z,79.57
2022-10-10T17:27:16.193Z,79.83
2022-10-10T17:29:44.215Z,79.64
2022-10-10T17:32:12.062Z,79.98
2022-10-10T17:34:40.147Z,79.65
2022-10-10T17:37:08.257Z,79.47
2022-10-10T17:39:37.538Z,79.89
2022-10-10T17:42:05.945Z,79.97
2022-10-10T17:44:40.285Z,79.42
2022-10-10T17:47:11.635Z,79.23
2022-10-10T17:49:45.107Z,79.13
2022-10-10T17:52:15.584Z,79.05
2022-10-10T17:54:48.612Z,78.93
2022-10-10T17:57:16.673Z,78.84
2022-10-10T17:59:44.634Z,78.81
2022-10-10T18:02:16.462Z,79.19
2022-10-10T18:04:44.757Z,79.16
2022-10-10T18:07:12.994Z,78.57
2022-10-10T18:09:41.438Z,78.85
2022-10-10T18:12:11.049Z,78.74
2022-10-10T18:14:38.993Z,78.20
2022-10-10T18:17:07.005Z,78.26
2022-10-10T18:19:35.143Z,78.06
2022-10-10T18:22:03.162Z,78.18
2022-10-10T18:24:31.383Z,78.03
2022-10-10T18:26:59.536Z,77.81
2022-10-10T18:29:28.870Z,77.56
2022-10-10T18:31:56.972Z,77.58
2022-10-10T18:34:25.001Z,77.85
2022-10-10T18:36:54.286Z,77.84
2022-10-10T18:39:22.324Z,77.90
2022-10-10T18:41:50.608Z,77.48
2022-10-10T18:44:19.944Z,77.76
2022-10-10T18:46:50.722Z,77.56
2022-10-10T18:49:19.017Z,77.61
2022-10-10T18:51:47.101Z,77.42
2022-10-10T18:54:17.146Z,77.41
2022-10-10T18:56:46.506Z,77.62
2022-10-10T18:59:17.069Z,77.96
2022-10-10T19:01:46.732Z,77.60
2022-10-10T19:04:17.471Z,77.80
2022-10-10T19:06:45.528Z,78.11
2022-10-10T19:09:15.814Z,77.80
2022-10-10T19:11:45.695Z,78.08
2022-10-10T19:14:16.116Z,78.36
2022-10-10T19:16:45.633Z,78.66
2022-10-10T19:19:16.782Z,78.48
2022-10-10T19:21:47.395Z,79.05
2022-10-10T19:24:19.554Z,78.56
2022-10-10T19:26:52.324Z,78.95
2022-10-10T19:29:20.517Z,78.78
2022-10-10T19:31:48.493Z,78.84
2022-10-10T19:34:17.988Z,79.06
2022-10-10T19:36:45.936Z,79.09
2022-10-10T19:39:14.047Z,79.75
2022-10-10T19:41:42.104Z,79.73
2022-10-10T19:44:09.993Z,79.82
2022-10-10T19:46:38.008Z,80.00
2022-10-10T19:49:06.643Z,80.07
2022-10-10T19:51:36.031Z,80.14
2022-10-10T19:54:04.124Z,80.08
2022-10-10T19:56:32.146Z,80.48
2022-10-10T19:59:04.293Z,80.76
2022-10-10T20:01:33.158Z,81.13
2022-10-10T20:04:01.237Z,81.12
2022-10-10T20:06:29.417Z,81.16
2022-10-10T20:08:58.972Z,81.50
2022-10-10T20:11:27.716Z,81.39
2022-10-10T20:13:56.170Z,81.63
2022-10-10T20:16:25.389Z,81.58
2022-10-10T20:18:54.125Z,81.62
2022-10-10T20:21:25.434Z,81.98
2022-10-10T20:23:54.606Z,81.96
2022-10-10T20:26:26.696Z,82.16
2022-10-10T20:28:55.631Z,82.03
2022-10-10T20:31:25.243Z,82.01
2022-10-10T20:33:54.897Z,82.01
2022-10-10T20:36:24.099Z,82.28
2022-10-10T20:38:55.729Z,82.53
2022-10-10T20:41:26.864Z,82.14
2022-10-10T20:43:59.131Z,82.58
2022-10-10T20:46:29.272Z,82.20
2022-10-10T20:48:58.025Z,82.50
2022-10-10T20:51:27.286Z,82.30
2022-10-10T20:53:57.481Z,82.56
2022-10-10T20:56:27.973Z,82.59
2022-10-10T20:58:55.928Z,82.80
2022-10-10T21:01:25.955Z,82.72
2022-10-10T21:03:54.446Z,82.93
2022-10-10T21:06:24.666Z,83.16
2022-10-10T21:08:53.792Z,83.38
2022-10-10T21:11:26.645Z,83.52
2022-10-10T21:13:57.473Z,83.27
2022-10-10T21:16:27.605Z,83.73
2022-10-10T21:18:58.383Z,83.36
2022-10-10T21:21:28.396Z,83.65
2022-10-10T21:23:56.970Z,83.77
2022-10-10T21:26:28.360Z,83.92
2022-10-10T21:28:57.448Z,83.83
2022-10-10T21:31:27.118Z,83.86
2022-10-10T21:33:55.294Z,83.90
2022-10-10T21:36:24.778Z,83.87
2022-10-10T21:38:52.656Z,83.77
2022-10-10T21:41:21.859Z,83.83
2022-10-10T21:43:52.965Z,84.03
2022-10-10T21:46:23.604Z,84.38
2022-10-10T21:48:52.171Z,84.33
2022-10-10T21:51:20.225Z,83.89
2022-10-10T21:53:48.601Z,84.26
2022-10-10T21:56:16.944Z,84.13
2022-10-10T21:58:45.265Z,84.35
2022-10-10T22:01:16.483Z,84.51
2022-10-10T22:03:45.193Z,84.11
2022-10-10T22:06:15.901Z,84.44
2022-10-10T22:08:44.371Z,84.51
2022-10-10T22:11:14.481Z,84.70
2022-10-10T22:13:42.795Z,84.89
2022-10-10T22:16:11.771Z,84.44
2022-10-10T22:18:41.401Z,84.95
2022-10-10T22:21:13.065Z,84.74
2022-10-10T22:23:41.272Z,84.48
2022-10-10T22:26:10.513Z,84.79
2022-10-10T22:28:38.911Z,85.08
2022-10-10T22:31:07.600Z,85.15
2022-10-10T22:33:35.773Z,84.94
2022-10-10T22:36:06.791Z,85.72
2022-10-10T22:38:38.988Z,86.27
2022-10-10T22:41:07.333Z,86.59
2022-10-10T22:43:35.260Z,87.47
2022-10-10T22:46:04.327Z,87.65
2022-10-10T22:48:32.625Z,87.94
2022-10-10T22:51:02.728Z,88.21
2022-10-10T22:53:32.463Z,88.54
2022-10-10T22:56:00.974Z,88.83
2022-10-10T22:58:29.051Z,89.18
2022-10-10T23:00:57.040Z,89.54
2022-10-10T23:03:25.023Z,89.70
2022-10-10T23:05:52.847Z,89.81
2022-10-10T23:08:20.799Z,90.16
2022-10-10T23:10:50.214Z,89.80
2022-10-10T23:13:18.132Z,89.95
2022-10-10T23:15:46.414Z,89.95
2022-10-10T23:18:14.587Z,90.10
2022-10-10T23:20:42.681Z,90.22
2022-10-10T23:23:10.771Z,90.14
2022-10-10T23:25:41.776Z,90.43
2022-10-10T23:28:12.125Z,90.16
2022-10-10T23:30:40.569Z,90.17
2022-10-10T23:33:09.257Z,90.29
2022-10-10T23:35:37.446Z,90.36
2022-10-10T23:38:06.030Z,90.54
2022-10-10T23:40:34.243Z,90.78
2022-10-10T23:43:02.274Z,90.74
2022-10-10T23:45:31.526Z,90.66
2022-10-10T23:47:59.697Z,90.83
2022-10-10T23:50:27.830Z,91.18
2022-10-10T23:52:55.693Z,91.25
2022-10-10T23:55:23.867Z,91.02
2022-10-10T23:57:51.995Z,91.39
